Heaton, North Dakota
Current Conditions -  °F | °C
As of 7:35 AM on Tuesday 21 Oct 2014 (Local Time) from K46D Reporting Station
Haze Haze  
Wind Chill: 37°   Ceiling: Unl
Heat Index: 45°   Visibility: 3mi
Dew Point: 41°   Wind: 17mph
Humidity: 87%   Direction: 140°SE
Pressure: 29.92"   Gusts: NA
Location:  47.3925°N, 99.7137°W
Report Text: K46D 211235Z AUTO 14015KT 3SM BR CLR 07/05 A2992 RMK AO2
Loading
Personal Weather Stations






























Interactive Weather Map
Tropical Storm Tracking
New forecast layout! Learn more

10-Day Weather Forecast

Advertisements
Track Severe Weather on mobile